Alkor — DBND — position and weather

sailwx.info

Track history (hours):
 
Tides and Currents Weather Stations Pressure Air Temp Water Temp Dewpoint Dewpoint Depression Visibility Wind Speed Wind Dir Waves Ship Positions

Oceanographic research ship Alkor (Germany)

Ship's website: http://www.briese.de/

Detailed information on ship capabilities available from University of Delaware's Ocean Information Center.

Last reported at 2019-Dec-06 05:00 UTC. Time now 2019-Dec-06 06:26 UTC.
Position N 53°30' E 008°36'.

Length 55 m; draft 4.2 m.

Type: Ship. MMSI: 211216512.

Wind from 220 at 17 knots

Barometer 1006.1 mb
Air temperature 5.7 ° C
Water temperature 9.8 ° C

Date/timePositionNaut miles runAvg speedWind from/ knotsBaromVisibWave heightAir tempDewpointWater temp
2019-Dec-06 05:00N 53°30' E 008°36'1 1.2 220 / 171006.1 5.7 9.8
2019-Dec-06 04:29N 53°30' E 008°35'1 1.3
2019-Dec-06 04:00N 53°30' E 008°36'0 0.0 220 / 171006.3 5.7 9.7
2019-Dec-06 03:00N 53°30' E 008°36'0 0.0 220 / 171006.5 5.5 9.4
2019-Dec-06 02:00N 53°30' E 008°36'142.7 210 / 171006.9 5.2 9.2
2019-Dec-06 01:59N 53°30' E 008°35'0 0.0
2019-Dec-06 01:29N 53°30' E 008°35'1 1.3
2019-Dec-06 01:00N 53°30' E 008°36'0 0.0 210 / 161007.4 4.7 9.0
2019-Dec-06 00:00N 53°30' E 008°36'0 0.0 210 / 161008.1 3.9 8.9
2019-Dec-05 23:00N 53°30' E 008°36'1 1.2 210 / 171009.3 3.7 8.8
2019-Dec-05 22:29N 53°30' E 008°35'1 1.3
2019-Dec-05 22:00N 53°30' E 008°36'0 0.0 210 / 201010.4 3.4 8.6
2019-Dec-05 21:00N 53°30' E 008°36'0 0.0 200 / 171011.3 2.9 8.6
2019-Dec-05 20:00N 53°30' E 008°36'1 1.2 200 / 171012.3 2.4 8.7
2019-Dec-05 19:29N 53°30' E 008°35'1 1.3
2019-Dec-05 19:00N 53°30' E 008°36'1 1.2 200 / 161013.2 2.4 8.7
2019-Dec-05 18:29N 53°30' E 008°35'1 1.3
2019-Dec-05 18:00N 53°30' E 008°36'1 1.2 200 / 151013.8 2.4 8.8
2019-Dec-05 17:29N 53°30' E 008°35'1 1.3
2019-Dec-05 17:00N 53°30' E 008°36'1 1.2 200 / 141014.5 2.2 9.0
2019-Dec-05 16:29N 53°30' E 008°35'1 1.3
2019-Dec-05 16:00N 53°30' E 008°36'1 1.2 200 / 131014.7 2.0 9.3
2019-Dec-05 15:29N 53°30' E 008°35'1 1.3
2019-Dec-05 15:00N 53°30' E 008°36'0 0.0 210 / 111015.8 2.2 9.8
2019-Dec-05 14:00N 53°30' E 008°36'1 1.2 230 / 151016.0 3.7 10.6
2019-Dec-05 13:29N 53°30' E 008°35'1 1.3
2019-Dec-05 13:00N 53°30' E 008°36'1 9.4 200 / 101016.5 4.4 11.3
2019-Dec-05 12:56N 53°30' E 008°35'1 0.7
2019-Dec-05 12:00N 53°30' E 008°36'0 0.0 200 / 111016.7 3.5 11.2
2019-Dec-05 11:00N 53°30' E 008°36'0 0.0 210 / 81017.3 2.7 10.4
2019-Dec-05 10:00N 53°30' E 008°36'0 0.0 200 / 61017.6 2.2 8.2
2019-Dec-05 09:00N 53°30' E 008°36'139.1 190 / 81017.2 0.7 8.1
2019-Dec-05 08:59N 53°30' E 008°35'1 0.6
2019-Dec-05 08:00N 53°30' E 008°36'0 0.0 190 / 71017.6 0.2 8.3
2019-Dec-05 07:00N 53°30' E 008°36'0 0.0 200 / 71018.2 0.4 8.7
2019-Dec-05 06:00N 53°30' E 008°36'138.3 220 / 41018.3 0.4 9.0
2019-Dec-05 05:59N 53°30' E 008°35'0 0.0
2019-Dec-05 05:29N 53°30' E 008°35'1 1.3
2019-Dec-05 05:00N 53°30' E 008°36'138.9 210 / 41018.1 0.5 9.2
2019-Dec-05 04:59N 53°30' E 008°35'1 0.6
2019-Dec-05 04:00N 53°30' E 008°36'0 0.0 210 / 61018.2 1.0 9.4
2019-Dec-05 03:00N 53°30' E 008°36'0 0.0 190 / 71018.0 1.4 9.5
2019-Dec-05 02:00N 53°30' E 008°36'136.2 200 / 81018.4 1.4 9.7
2019-Dec-05 01:58N 53°30' E 008°35'1 0.6
2019-Dec-05 01:00N 53°30' E 008°36'135.4 200 / 61018.7 1.5 9.9
2019-Dec-05 00:58N 53°30' E 008°35'1 0.6
2019-Dec-05 00:00N 53°30' E 008°36'0 0.0 190 / 61019.0 2.2 10.0
2019-Dec-04 23:00N 53°30' E 008°36'0 0.0 200 / 71019.3 2.2 9.9
2019-Dec-04 22:00N 53°30' E 008°36'0 0.0 210 / 71019.7 2.4 10.1
2019-Dec-04 21:00N 53°30' E 008°36'0 0.0 200 / 71019.9 3.0 10.1
2019-Dec-04 20:00N 53°30' E 008°36'0 0.0 200 / 81020.2 3.5 10.3
2019-Dec-04 19:00N 53°30' E 008°36'138.7 200 / 71020.1 3.9 10.9
2019-Dec-04 18:59N 53°30' E 008°35'1 0.6
2019-Dec-04 18:00N 53°30' E 008°36'0 0.0 200 / 61020.0 4.0 11.1
2019-Dec-04 17:00N 53°30' E 008°36'136.1 200 / 71020.1 5.0 11.3
2019-Dec-04 16:58N 53°30' E 008°35'1 0.6
2019-Dec-04 16:00N 53°30' E 008°36'0 0.0 200 / 61020.1 5.7 11.6
2019-Dec-04 15:00N 53°30' E 008°36'0 0.0 210 / 81020.6 6.2 11.5
2019-Dec-04 14:00N 53°30' E 008°36'0 0.0 210 / 81020.4 6.4 11.3
2019-Dec-04 13:00N 53°30' E 008°36'0 0.0 220 / 91020.5 6.2 11.1
2019-Dec-04 12:00N 53°30' E 008°36'134.0 220 / 91020.9 5.4 10.5
2019-Dec-04 11:58N 53°30' E 008°35'1 0.6
2019-Dec-04 11:00N 53°30' E 008°36'0 0.0 220 / 101021.3 4.7 10.4
2019-Dec-04 10:00N 53°30' E 008°36'1 1.2 220 / 71021.4 5.0 10.6
2019-Dec-04 09:28N 53°30' E 008°35'1 1.3
2019-Dec-04 09:00N 53°30' E 008°36'1 1.2 240 / 91021.5 4.7 10.2
2019-Dec-04 08:28N 53°30' E 008°35'1 1.3
2019-Dec-04 08:00N 53°30' E 008°36'0 0.0 230 / 91021.4 4.5 10.3
2019-Dec-04 07:00N 53°30' E 008°36'1 1.2 220 / 91021.2 4.2 10.2
2019-Dec-04 06:28N 53°30' E 008°35'1 1.3
2019-Dec-04 06:00N 53°30' E 008°36'1 1.2 220 / 91021.2 4.2 10.1
2019-Dec-04 05:28N 53°30' E 008°35'1 1.3
2019-Dec-04 05:00N 53°30' E 008°36'134.8 230 / 91021.1 4.2 10.2
2019-Dec-04 04:58N 53°30' E 008°35'1 0.6
2019-Dec-04 04:00N 53°30' E 008°36'1 9.1 230 / 91021.4 4.2 10.2
2019-Dec-04 03:55N 53°30' E 008°35'0 0.0
2019-Dec-04 03:28N 53°30' E 008°35'1 1.3
2019-Dec-04 03:00N 53°30' E 008°36'1 1.2 230 / 101021.4 4.2 10.0
2019-Dec-04 02:28N 53°30' E 008°35'1 1.3
2019-Dec-04 02:00N 53°30' E 008°36'133.9 230 / 111022.0 4.4 10.1
2019-Dec-04 01:58N 53°30' E 008°35'1 0.6
2019-Dec-04 01:00N 53°30' E 008°36'1 1.2 230 / 111022.2 4.4 10.2
2019-Dec-04 00:28N 53°30' E 008°35'1 1.3
2019-Dec-04 00:00N 53°30' E 008°36'1 1.2 230 / 121022.5 5.2 10.4
2019-Dec-03 23:28N 53°30' E 008°35'1 1.3
2019-Dec-03 23:00N 53°30' E 008°36'0 0.0 230 / 111022.9 5.7 10.7
2019-Dec-03 22:00N 53°30' E 008°36'1 1.2 230 / 101022.7 6.2 11.0
2019-Dec-03 21:28N 53°30' E 008°35'1 1.3
2019-Dec-03 21:00N 53°30' E 008°36'131.1 240 / 121022.6 6.5 11.0
2019-Dec-03 20:58N 53°30' E 008°35'0 0.0
2019-Dec-03 20:28N 53°30' E 008°35'1 1.3
2019-Dec-03 20:00N 53°30' E 008°36'132.4 230 / 111022.7 6.5 11.0
2019-Dec-03 19:58N 53°30' E 008°35'1 0.6
2019-Dec-03 19:00N 53°30' E 008°36'0 0.0 240 / 121022.9 6.5 10.9
2019-Dec-03 18:00N 53°30' E 008°36'0 0.0 230 / 111023.5 6.7 11.0
2019-Dec-03 17:00N 53°30' E 008°36'132.1 230 / 101023.4 6.7 11.3
2019-Dec-03 16:58N 53°30' E 008°35'1 0.6
2019-Dec-03 16:00N 53°30' E 008°36'0 0.0 230 / 101023.6 6.5 11.8
2019-Dec-03 15:00N 53°30' E 008°36'134.3 230 / 101023.8 7.2 12.2
2019-Dec-03 14:58N 53°30' E 008°35'1 0.6
2019-Dec-03 14:00N 53°30' E 008°36'1 1.2 250 / 111024.0 7.4 12.6
2019-Dec-03 13:28N 53°30' E 008°35'1 1.3
2019-Dec-03 13:00N 53°30' E 008°36'0 0.0 250 / 121024.3 7.5 12.9
2019-Dec-03 12:00N 53°30' E 008°36'1 1.2 250 / 161024.9 7.4 13.5
2019-Dec-03 11:28N 53°30' E 008°35'1 1.3
2019-Dec-03 11:00N 53°30' E 008°36'0 0.0 250 / 151024.9 7.4 13.4
2019-Dec-03 10:00N 53°30' E 008°36'1 1.2 230 / 91025.3 6.9 11.6
2019-Dec-03 09:28N 53°30' E 008°35'1 1.3
2019-Dec-03 09:00N 53°30' E 008°36'133.1 220 / 91025.4 5.2 11.5
2019-Dec-03 08:58N 53°30' E 008°35'0 0.0
2019-Dec-03 08:28N 53°30' E 008°35'1 1.3
2019-Dec-03 08:00N 53°30' E 008°36'1 1.2 250 / 61025.6 5.2 11.4
2019-Dec-03 07:28N 53°30' E 008°35'1 1.3
2019-Dec-03 07:00N 53°30' E 008°36'1 1.2 240 / 81025.4 5.0 11.4
2019-Dec-03 06:28N 53°30' E 008°35'1 1.3
2019-Dec-03 06:00N 53°30' E 008°36'1 1.2 230 / 71025.3 5.2 11.4
2019-Dec-03 05:28N 53°30' E 008°35'1 1.3
2019-Dec-03 05:00N 53°30' E 008°36'1 1.2 230 / 51025.3 5.0 11.5
2019-Dec-03 04:28N 53°30' E 008°35'1 1.3
2019-Dec-03 04:00N 53°30' E 008°36'132.0 220 / 31025.4 5.2 11.4
2019-Dec-03 03:58N 53°30' E 008°35'0 0.0
2019-Dec-03 03:28N 53°30' E 008°35'1 1.3
2019-Dec-03 03:00N 53°30' E 008°36'0 0.0 210 / 51025.1 4.7 11.2
2019-Dec-03 02:00N 53°30' E 008°36'0 0.0 250 / 61025.2 4.9 11.3
2019-Dec-03 01:00N 53°30' E 008°36'1 1.2 230 / 71025.1 4.7 11.2
2019-Dec-03 00:28N 53°30' E 008°35'1 1.3
2019-Dec-03 00:00N 53°30' E 008°36'0 0.0 220 / 51025.1 4.2 11.4
2019-Dec-02 23:00N 53°30' E 008°36'131.2 240 / 51024.9 4.2 11.7
2019-Dec-02 22:58N 53°30' E 008°35'0 0.0
2019-Dec-02 22:28N 53°30' E 008°35'1 1.3
2019-Dec-02 22:00N 53°30' E 008°36'1 1.2 240 / 31024.7 4.5 11.9
2019-Dec-02 21:28N 53°30' E 008°35'1 1.3
2019-Dec-02 21:00N 53°30' E 008°36'0 0.0 250 / 51024.5 4.7 11.8
2019-Dec-02 20:00N 53°30' E 008°36'1 1.2 250 / 51024.2 4.4 11.8
2019-Dec-02 19:28N 53°30' E 008°35'1 1.3
2019-Dec-02 19:00N 53°30' E 008°36'129.5 230 / 51023.9 4.7 11.9
2019-Dec-02 18:58N 53°30' E 008°35'0 0.0
2019-Dec-02 18:28N 53°30' E 008°35'1 1.3
2019-Dec-02 18:00N 53°30' E 008°36'1 1.2 300 / 21023.4 5.0 12.2
2019-Dec-02 17:28N 53°30' E 008°35'1 1.3
2019-Dec-02 17:00N 53°30' E 008°36'129.4 300 / 31022.9 6.0 12.4
2019-Dec-02 16:58N 53°30' E 008°35'1 0.6
2019-Dec-02 16:00N 53°30' E 008°36'130.1 320 / 81022.6 6.5 12.5
2019-Dec-02 15:58N 53°30' E 008°35'1 0.6
2019-Dec-02 15:00N 53°30' E 008°36'0 0.0 320 / 111022.3 6.4 12.8
2019-Dec-02 14:00N 53°30' E 008°36'0 0.0 320 / 101021.8 6.7 13.3
2019-Dec-02 13:00N 53°30' E 008°36'130.0 320 / 151021.4 7.4 13.6
2019-Dec-02 12:58N 53°30' E 008°35'1 0.6
2019-Dec-02 12:00N 53°30' E 008°36'1 1.2 330 / 121021.6 6.7 13.1
2019-Dec-02 11:28N 53°30' E 008°35'1 1.3
2019-Dec-02 11:00N 53°30' E 008°36'0 0.0 320 / 71021.2 6.4 11.8
2019-Dec-02 10:00N 53°30' E 008°36'0 0.0 260 / 71020.9 5.4 10.8
2019-Dec-02 09:00N 53°30' E 008°36'1 1.2 260 / 61020.5 4.5 10.4
2019-Dec-02 08:28N 53°30' E 008°35'1 1.3
2019-Dec-02 08:00N 53°30' E 008°36'1 1.2 250 / 71020.1 3.9 10.0
2019-Dec-02 07:28N 53°30' E 008°35'1 1.3
2019-Dec-02 07:00N 53°30' E 008°36'129.7 230 / 81019.7 2.9 9.7
2019-Dec-02 06:58N 53°30' E 008°35'1 0.6
2019-Dec-02 06:00N 53°30' E 008°36'128.0 190 / 41019.5 2.5 9.9
2019-Dec-02 05:58N 53°30' E 008°35'1 0.6
2019-Dec-02 05:00N 53°30' E 008°36'1 1.2 250 / 61019.6 3.5 10.1
2019-Dec-02 04:28N 53°30' E 008°35'1 1.3
2019-Dec-02 04:00N 53°30' E 008°36'128.5 250 / 31019.6 3.4 10.2
2019-Dec-02 03:58N 53°30' E 008°35'0 0.0
2019-Dec-02 03:28N 53°30' E 008°35'1 1.3
2019-Dec-02 03:00N 53°30' E 008°36'0 0.0 250 / 51019.4 3.0 9.9
2019-Dec-02 02:00N 53°30' E 008°36'1 1.2 270 / 31019.8 3.7 9.8
2019-Dec-02 01:28N 53°30' E 008°35'1 1.3
2019-Dec-02 01:00N 53°30' E 008°36'0 0.0 240 / 71019.8 2.4 9.7
2019-Dec-02 00:00N 53°30' E 008°36'1 1.2 250 / 71019.8 2.4 9.8
2019-Dec-01 23:28N 53°30' E 008°35'1 1.3
2019-Dec-01 23:00N 53°30' E 008°36'0 0.0 230 / 41020.2 2.7 9.8
2019-Dec-01 22:00N 53°30' E 008°36'0 0.0 240 / 51020.3 2.7 9.7
2019-Dec-01 21:00N 53°30' E 008°36'0 0.0 220 / 41020.4 2.7 9.8
2019-Dec-01 20:00N 53°30' E 008°36'127.1 220 / 51020.4 3.0 10.1
2019-Dec-01 19:58N 53°30' E 008°35'1 0.6
2019-Dec-01 19:00N 53°30' E 008°36'1 1.2 220 / 41020.5 3.2 10.2
2019-Dec-01 18:28N 53°30' E 008°35'1 1.3
2019-Dec-01 18:00N 53°30' E 008°36'0 0.0 230 / 31020.4 3.2 10.5
2019-Dec-01 17:00N 53°30' E 008°36'1 1.2 220 / 31020.4 3.0 10.5
2019-Dec-01 16:28N 53°30' E 008°35'1 1.3
2019-Dec-01 16:00N 53°30' E 008°36'127.3 170 / 41020.7 3.2 10.8
2019-Dec-01 15:58N 53°30' E 008°35'1 0.6
2019-Dec-01 15:00N 53°30' E 008°36'0 0.0 260 / 21020.8 3.9 10.9
2019-Dec-01 14:00N 53°30' E 008°36'126.8 230 / 31021.0 3.7 10.7
2019-Dec-01 13:58N 53°30' E 008°35'1 0.6
2019-Dec-01 13:00N 53°30' E 008°36'126.7 200 / 41021.0 3.7 10.4
2019-Dec-01 12:58N 53°30' E 008°35'1 0.6
2019-Dec-01 12:00N 53°30' E 008°36'126.5 210 / 41021.5 2.9 10.4
2019-Dec-01 11:58N 53°30' E 008°35'0 0.0
2019-Dec-01 11:28N 53°30' E 008°35'1 1.3
2019-Dec-01 11:00N 53°30' E 008°36'0 0.0 210 / 31021.5 2.5 10.1
2019-Dec-01 10:00N 53°30' E 008°36'0 0.0 130 / 11021.7 1.9 9.8
2019-Dec-01 09:00N 53°30' E 008°36'1 1.2 200 / 21021.8 1.2 9.6
2019-Dec-01 08:28N 53°30' E 008°35'1 1.3
2019-Dec-01 08:00N 53°30' E 008°36'0 0.0 180 / 41021.5 1.2 9.7
2019-Dec-01 07:00N 53°30' E 008°36'0 0.0 190 / 31021.2 1.7 9.8
2019-Dec-01 06:00N 53°30' E 008°36'1 1.2 190 / 41021.6 1.5 10.0
2019-Dec-01 05:28N 53°30' E 008°35'1 1.3
2019-Dec-01 05:00N 53°30' E 008°36'125.8 210 / 41021.5 1.7 10.2
2019-Dec-01 04:58N 53°30' E 008°35'1 0.6
2019-Dec-01 04:00N 53°30' E 008°36'126.6 170 / 41021.6 1.9 10.5
2019-Dec-01 03:58N 53°30' E 008°35'0 0.0
2019-Dec-01 03:28N 53°30' E 008°35'1 1.3
2019-Dec-01 03:00N 53°30' E 008°36'1 1.2 180 / 41021.9 2.4 10.7
2019-Dec-01 02:28N 53°30' E 008°35'1 1.3
2019-Dec-01 02:00N 53°30' E 008°36'0 0.0 190 / 21022.0 2.9 10.8
2019-Dec-01 01:00N 53°30' E 008°36'0 0.0 210 / 31022.3 3.5 10.8
2019-Dec-01 00:00N 53°30' E 008°36'126.9 230 / 11022.6 3.2 10.7
2019-Nov-30 23:58N 53°30' E 008°35'1 0.6
2019-Nov-30 23:00N 53°30' E 008°36'124.7 210 / 41022.5 3.2 10.6
2019-Nov-30 22:58N 53°30' E 008°35'1 0.6
2019-Nov-30 22:00N 53°30' E 008°36'1 1.2 210 / 41022.6 3.5 10.7
2019-Nov-30 21:28N 53°30' E 008°35'1 1.3
2019-Nov-30 21:00N 53°30' E 008°36'1 1.2 240 / 41022.6 3.2 10.8
2019-Nov-30 20:28N 53°30' E 008°35'1 1.3
2019-Nov-30 20:00N 53°30' E 008°36'0 0.0 230 / 31022.6 3.4 10.9
2019-Nov-30 19:00N 53°30' E 008°36'126.1 220 / 31022.3 3.9 10.9
2019-Nov-30 18:58N 53°30' E 008°35'0 0.0
2019-Nov-30 18:28N 53°30' E 008°35'1 1.3
2019-Nov-30 18:00N 53°30' E 008°36'0 0.0 260 / 81022.1 4.5 11.0
2019-Nov-30 17:00N 53°30' E 008°36'0 0.0 260 / 81022.0 4.0 11.0
2019-Nov-30 16:00N 53°30' E 008°36'0 0.0 230 / 61022.1 4.4 11.1
2019-Nov-30 15:00N 53°30' E 008°36'0 0.0 250 / 81022.0 5.4 11.6
2019-Nov-30 14:00N 53°30' E 008°36'1 1.2 260 / 101021.8 6.2 12.1
2019-Nov-30 13:28N 53°30' E 008°35'1 1.3
2019-Nov-30 13:00N 53°30' E 008°36'1 1.2 270 / 61021.6 6.2 12.2
2019-Nov-30 12:28N 53°30' E 008°35'1 1.3
2019-Nov-30 12:00N 53°30' E 008°36'0 0.0 270 / 51021.4 6.4 11.8
2019-Nov-30 11:00N 53°30' E 008°36'0 0.0 270 / 31021.3 5.4 10.9
2019-Nov-30 10:00N 53°30' E 008°36'0 0.0 210 / 51021.2 4.4 10.9
2019-Nov-30 09:00N 53°30' E 008°36'0 0.0 240 / 61020.8 3.9 11.6
2019-Nov-30 08:00N 53°30' E 008°36'0 0.0 270 / 31020.3 3.4 11.4
2019-Nov-30 07:00N 53°30' E 008°36'0 0.0 260 / 51020.0 3.2 11.5
2019-Nov-30 06:00N 53°30' E 008°36'1 1.2 260 / 71019.4 3.7 11.8
2019-Nov-30 05:28N 53°30' E 008°35'1 1.3
2019-Nov-30 05:00N 53°30' E 008°36'124.2 250 / 41019.1 3.4 11.6
2019-Nov-30 04:58N 53°30' E 008°35'1 0.6
2019-Nov-30 04:00N 53°30' E 008°36'1 1.2 230 / 51018.6 3.4 11.6
2019-Nov-30 03:28N 53°30' E 008°35'1 1.3
2019-Nov-30 03:00N 53°30' E 008°36'1 1.2 260 / 81018.2 3.9 11.7
2019-Nov-30 02:28N 53°30' E 008°35'1 1.3
2019-Nov-30 02:00N 53°30' E 008°36'0 0.0 260 / 71017.7 3.4 11.6
2019-Nov-30 01:00N 53°30' E 008°36'125.5 250 / 61017.1 3.0 11.6
2019-Nov-30 00:58N 53°30' E 008°35'1 0.6
2019-Nov-30 00:00N 53°30' E 008°36'0 0.0 240 / 101016.6 3.7 11.8
2019-Nov-29 23:00N 53°30' E 008°36'123.1 290 / 81015.8 4.7 12.0
2019-Nov-29 22:58N 53°30' E 008°35'1 0.6
2019-Nov-29 22:00N 53°30' E 008°36'1 1.2 360 / 41015.3 4.9 11.9
2019-Nov-29 21:28N 53°30' E 008°35'1 1.3
2019-Nov-29 21:00N 53°30' E 008°36'123.9 310 / 71014.6 4.4 12.0
2019-Nov-29 20:58N 53°30' E 008°35'0 0.0
2019-Nov-29 20:28N 53°30' E 008°35'1 1.3
2019-Nov-29 20:00N 53°30' E 008°36'1 1.2 240 / 31013.7 4.2 12.2
2019-Nov-29 19:28N 53°30' E 008°35'1 1.3
2019-Nov-29 19:00N 53°30' E 008°36'0 0.0 290 / 21012.7 4.7 12.2
2019-Nov-29 18:00N 53°30' E 008°36'123.0 320 / 11011.9 5.4 12.0
2019-Nov-29 17:58N 53°30' E 008°35'0 0.0
2019-Nov-29 17:28N 53°30' E 008°35'1 1.3
2019-Nov-29 17:00N 53°30' E 008°36'1 1.2 240 / 41011.2 4.4 11.7
2019-Nov-29 16:28N 53°30' E 008°35'1 1.3
2019-Nov-29 16:00N 53°30' E 008°36'123.4 220 / 21010.3 4.7 10.8
2019-Nov-29 15:58N 53°30' E 008°35'0 0.0
2019-Nov-29 15:28N 53°30' E 008°35'1 1.3
2019-Nov-29 15:00N 53°30' E 008°36'0 0.0 350 / 51009.7 6.2 9.6
2019-Nov-29 14:00N 53°30' E 008°36'123.5 330 / 61009.0 6.4 8.5
2019-Nov-29 13:58N 53°30' E 008°35'1 0.6
2019-Nov-29 13:00N 53°30' E 008°36'0 0.0 350 / 111008.3 6.4 8.5
2019-Nov-29 12:00N 53°30' E 008°36'125.8 340 / 111007.0 6.7 8.5
2019-Nov-29 11:58N 53°30' E 008°35'0 0.2
2019-Nov-29 11:28N 53°30' E 008°35'1 1.2
2019-Nov-29 11:00N 53°30' E 008°36'0 0.0 340 / 91006.0 6.2 8.7
2019-Nov-29 10:00N 53°30' E 008°36'1 1.1 340 / 101004.5 5.7 8.7
2019-Nov-29 09:28N 53°30' E 008°35'1 1.2
2019-Nov-29 09:00N 53°30' E 008°36'0 0.0 310 / 131002.8 5.5 8.8
2019-Nov-29 08:00N 53°30' E 008°36'1 1.1 300 / 171001.7 5.9 8.8
2019-Nov-29 07:28N 53°30' E 008°35'1 1.2
2019-Nov-29 07:00N 53°30' E 008°36'121.9 300 / 151000.3 6.2 8.8
2019-Nov-29 06:58N 53°30' E 008°35'0 0.0
2019-Nov-29 06:28N 53°30' E 008°35'1 1.2
2019-Nov-29 06:00N 53°30' E 008°36'0 0.0 290 / 19999.1 6.5 8.8
2019-Nov-29 05:00N 53°30' E 008°36'121.0 300 / 14998.4 5.7 8.8
2019-Nov-29 04:58N 53°30' E 008°35'0 0.0
2019-Nov-29 04:28N 53°30' E 008°35'1 1.2
2019-Nov-29 04:00N 53°30' E 008°36'1 1.1 270 / 17997.3 5.9 8.8
2019-Nov-29 03:28N 53°30' E 008°35'1 1.2
2019-Nov-29 03:00N 53°30' E 008°36'1 1.1 280 / 19996.8 6.2 8.8
2019-Nov-29 02:28N 53°30' E 008°35'1 1.2
2019-Nov-29 02:00N 53°30' E 008°36'122.0 290 / 19996.4 5.9 8.9
2019-Nov-29 01:58N 53°30' E 008°35'1 0.6
2019-Nov-29 01:00N 53°30' E 008°36'1 1.1 270 / 16995.6 6.4 8.9
2019-Nov-29 00:28N 53°30' E 008°35'1 1.2
2019-Nov-29 00:00N 53°30' E 008°36'0 0.0 280 / 14995.1 7.2 8.9
2019-Nov-28 23:00N 53°30' E 008°36'0 0.0 290 / 16994.3 7.4 8.9
2019-Nov-28 22:00N 53°30' E 008°36'1 1.1 290 / 17993.2 8.0 8.9
2019-Nov-28 21:28N 53°30' E 008°35'1 1.2
2019-Nov-28 21:00N 53°30' E 008°36'0 0.0 290 / 16992.3 7.9 8.9
2019-Nov-28 20:00N 53°30' E 008°36'121.1 270 / 14991.3 8.4 8.8
2019-Nov-28 19:58N 53°30' E 008°35'0 0.0
2019-Nov-28 19:28N 53°30' E 008°35'1 1.2
2019-Nov-28 19:00N 53°30' E 008°36'120.6 290 / 13990.2 8.2 8.8
2019-Nov-28 18:58N 53°30' E 008°35'1 0.6
2019-Nov-28 18:00N 53°30' E 008°36'121.5 270 / 15989.0 8.9 8.8
2019-Nov-28 17:58N 53°30' E 008°35'1 0.6
2019-Nov-28 17:00N 53°30' E 008°36'1 1.1 270 / 14988.2 9.4 8.8
2019-Nov-28 16:28N 53°30' E 008°35'1 1.2
2019-Nov-28 16:00N 53°30' E 008°36'121.9 280 / 15987.3 9.4 8.7
2019-Nov-28 15:58N 53°30' E 008°35'1 0.6
2019-Nov-28 15:00N 53°30' E 008°36'1 1.1 280 / 14986.1 9.9 8.7
2019-Nov-28 14:28N 53°30' E 008°35'1 1.3
2019-Nov-28 14:00N 53°30' E 008°36'120.4 260 / 12984.5 9.0 8.7
2019-Nov-28 13:58N 53°30' E 008°35'0 0.0
2019-Nov-28 13:28N 53°30' E 008°35'1 1.2
2019-Nov-28 13:00N 53°30' E 008°36'0 0.0 220 / 12984.1 8.9 8.7
2019-Nov-28 12:00N 53°30' E 008°36'0 0.0 210 / 13984.1 8.7 8.6
2019-Nov-28 11:00N 53°30' E 008°36'0 0.0 210 / 15984.2 8.9 8.7
2019-Nov-28 10:00N 53°30' E 008°36'0 0.0 200 / 15984.3 9.2 8.7
2019-Nov-28 09:00N 53°30' E 008°36'0 0.0 190 / 12984.2 9.4 8.7
2019-Nov-28 08:00N 53°30' E 008°36'1 1.1 200 / 12984.2 9.2 8.7
2019-Nov-28 07:28N 53°30' E 008°35'1 1.2
2019-Nov-28 07:00N 53°30' E 008°36'1 1.1 200 / 14984.1 9.7 8.6
2019-Nov-28 06:28N 53°30' E 008°35'1 1.2
2019-Nov-28 06:00N 53°30' E 008°36'0 0.0 200 / 12983.8 9.4 8.6
2019-Nov-28 05:00N 53°30' E 008°36'121.6 200 / 12983.8 9.5 8.6
2019-Nov-28 04:58N 53°30' E 008°35'0 0.0
2019-Nov-28 04:28N 53°30' E 008°35'1 1.3
2019-Nov-28 04:00N 53°30' E 008°36'0 0.0 210 / 14983.8 9.9 8.6
2019-Nov-28 03:00N 53°30' E 008°36'1 1.1 200 / 14983.5 9.9 8.6
2019-Nov-28 02:28N 53°30' E 008°35'1 1.2
2019-Nov-28 02:00N 53°30' E 008°36'1 1.1 190 / 19983.3 9.9 8.6
2019-Nov-28 01:28N 53°30' E 008°35'1 1.2
2019-Nov-28 01:00N 53°30' E 008°36'0 0.0 170 / 14983.6 10.2 8.6
2019-Nov-28 00:00N 53°30' E 008°36'120.4 170 / 13984.4 10.4 8.6
2019-Nov-27 23:58N 53°30' E 008°35'1 0.6
2019-Nov-27 23:00N 53°30' E 008°36'0 0.0 160 / 12985.4 9.9 8.6
2019-Nov-27 22:00N 53°30' E 008°36'1 1.1 150 / 10986.0 8.9 8.6
2019-Nov-27 21:28N 53°30' E 008°35'1 1.3
2019-Nov-27 21:00N 53°30' E 008°36'120.4 140 / 10986.7 8.9 8.6
2019-Nov-27 20:58N 53°30' E 008°35'0 0.0
2019-Nov-27 20:28N 53°30' E 008°35'1 1.3
2019-Nov-27 20:00N 53°30' E 008°36'120.6 140 / 10987.2 8.7 8.6
2019-Nov-27 19:58N 53°30' E 008°35'0 0.0
2019-Nov-27 19:28N 53°30' E 008°35'1 1.3
2019-Nov-27 19:00N 53°30' E 008°36'0 0.0 140 / 11987.8 8.7 8.7
2019-Nov-27 18:00N 53°30' E 008°36'1 1.1 140 / 11988.3 9.2 8.6
2019-Nov-27 17:28N 53°30' E 008°35'1 1.3
2019-Nov-27 17:00N 53°30' E 008°36'120.0 140 / 10988.7 8.9 8.6
2019-Nov-27 16:58N 53°30' E 008°35'0 0.0
2019-Nov-27 16:28N 53°30' E 008°35'1 1.3
2019-Nov-27 16:00N 53°30' E 008°36'1 1.1 140 / 11989.0 9.5 8.6
2019-Nov-27 15:28N 53°30' E 008°35'1 1.3
2019-Nov-27 15:00N 53°30' E 008°36'1 1.1 140 / 9989.5 9.5 8.5
2019-Nov-27 14:28N 53°30' E 008°35'1 1.3
2019-Nov-27 14:00N 53°30' E 008°36'119.6 140 / 11989.5 9.5 8.6
2019-Nov-27 13:58N 53°30' E 008°35'1 0.6
2019-Nov-27 13:00N 53°30' E 008°36'120.8 140 / 9989.5 9.4 8.6
2019-Nov-27 12:58N 53°30' E 008°35'1 0.6
2019-Nov-27 12:00N 53°30' E 008°36'1 1.1 170 / 9990.6 9.2 8.7
2019-Nov-27 11:28N 53°30' E 008°35'1 1.3
2019-Nov-27 11:00N 53°30' E 008°36'0 0.0 160 / 11990.6 10.2 8.7
2019-Nov-27 10:00N 53°30' E 008°36'120.1 140 / 12991.2 9.5 8.7
2019-Nov-27 09:58N 53°30' E 008°35'0 0.0
2019-Nov-27 09:28N 53°30' E 008°35'1 1.3
2019-Nov-27 09:00N 53°30' E 008°36'1 1.1 120 / 11991.4 9.4 8.7
2019-Nov-27 08:28N 53°30' E 008°35'1 1.3
2019-Nov-27 08:00N 53°30' E 008°36'0 0.0 120 / 12992.1 9.4 8.7
2019-Nov-27 07:00N 53°30' E 008°36'1 1.1 110 / 9992.5 9.5 8.7
2019-Nov-27 06:28N 53°30' E 008°35'1 1.3
2019-Nov-27 06:00N 53°30' E 008°36'0 0.0 130 / 8993.6 9.2 8.6
2019-Nov-27 05:00N 53°30' E 008°36'0 0.0 130 / 8994.2 9.4 8.6
2019-Nov-27 04:00N 53°30' E 008°36'1 1.1 140 / 8995.2 9.2 8.6
2019-Nov-27 03:28N 53°30' E 008°35'1 1.3
2019-Nov-27 03:00N 53°30' E 008°36'1 1.1 140 / 9995.8 9.2 8.5
2019-Nov-27 02:28N 53°30' E 008°35'1 1.3
2019-Nov-27 02:00N 53°30' E 008°36'0 0.0 140 / 9996.7 9.2 8.5
2019-Nov-27 01:00N 53°30' E 008°36'0 0.0 140 / 10997.2 9.2 8.5
2019-Nov-27 00:00N 53°30' E 008°36'0 0.0 140 / 10997.8 9.4 8.5
2019-Nov-26 23:00N 53°30' E 008°36'118.9 140 / 11998.6 9.2 8.5
2019-Nov-26 22:58N 53°30' E 008°35'0 0.0
2019-Nov-26 22:28N 53°30' E 008°35'1 1.3
2019-Nov-26 22:00N 53°30' E 008°36'1 1.1 140 / 10998.9 9.2 8.5
2019-Nov-26 21:28N 53°30' E 008°35'1 1.3
2019-Nov-26 21:00N 53°30' E 008°36'0 0.0 140 / 10999.9 9.4 8.5
2019-Nov-26 20:00N 53°30' E 008°36'119.4 140 / 101000.7 9.4 8.5
2019-Nov-26 19:58N 53°30' E 008°35'0 0.0
2019-Nov-26 19:28N 53°30' E 008°35'1 1.3
2019-Nov-26 19:00N 53°30' E 008°36'118.9 150 / 101000.9 9.0 8.5
2019-Nov-26 18:58N 53°30' E 008°35'1 0.6
2019-Nov-26 18:00N 53°30' E 008°36'0 0.0 140 / 101001.3 8.9 8.5
2019-Nov-26 17:00N 53°30' E 008°36'0 0.0 140 / 101001.7 8.4 8.5
2019-Nov-26 16:00N 53°30' E 008°36'0 0.0 150 / 111002.0 8.4 8.5
2019-Nov-26 15:00N 53°30' E 008°36'1 1.1 140 / 91002.4 8.2 8.5
2019-Nov-26 14:28N 53°30' E 008°35'1 1.3
2019-Nov-26 14:00N 53°30' E 008°36'0 0.0 140 / 91002.8 7.9 8.5
2019-Nov-26 13:00N 53°30' E 008°36'118.9 160 / 81003.2 7.9 8.5
2019-Nov-26 12:58N 53°30' E 008°35'1 0.6
2019-Nov-26 12:00N 53°30' E 008°36'0 0.0 170 / 61003.7 8.2 8.6
2019-Nov-26 11:00N 53°30' E 008°36'1 1.1 150 / 71004.0 7.4 8.6
2019-Nov-26 10:28N 53°30' E 008°35'1 1.3
2019-Nov-26 10:00N 53°30' E 008°36'0 0.0 150 / 91004.6 6.4 8.6
2019-Nov-26 09:00N 53°30' E 008°36'118.8 140 / 91005.1 5.7 8.6
2019-Nov-26 08:58N 53°30' E 008°35'1 0.6
2019-Nov-26 08:00N 53°30' E 008°36'1 1.1 150 / 91005.3 5.4 8.6
2019-Nov-26 07:28N 53°30' E 008°35'1 1.3
2019-Nov-26 07:00N 53°30' E 008°36'118.8 140 / 91005.6 5.2 8.6
2019-Nov-26 06:58N 53°30' E 008°35'0 0.0
2019-Nov-26 06:28N 53°30' E 008°35'1 1.3
2019-Nov-26 06:00N 53°30' E 008°36'1 1.1 130 / 71005.6 5.2 8.6
2019-Nov-26 05:28N 53°30' E 008°35'1 1.3
2019-Nov-26 05:00N 53°30' E 008°36'   140 / 91006.1 4.7 8.6
Track history (hours):
 
Tides and Currents Weather Stations Pressure Air Temp Water Temp Dewpoint Dewpoint Depression Visibility Wind Speed Wind Dir Waves Ship Positions

Oceanographic research ship Alkor (Germany)

Ship's website: http://www.briese.de/

Detailed information on ship capabilities available from University of Delaware's Ocean Information Center.

Last reported at 2019-Dec-06 05:00 UTC. Time now 2019-Dec-06 06:26 UTC.
Position N 53°30' E 008°36'.

Length 55 m; draft 4.2 m.

Type: Ship. MMSI: 211216512.

Wind from 220 at 17 knots

Barometer 1006.1 mb
Air temperature 5.7 ° C
Water temperature 9.8 ° C

Date/timePositionNaut miles runAvg speedWind from/ knotsBaromVisibWave heightAir tempDewpointWater temp
2019-Dec-06 05:00N 53°30' E 008°36'1 1.2 220 / 171006.1 5.7 9.8
2019-Dec-06 04:29N 53°30' E 008°35'1 1.3
2019-Dec-06 04:00N 53°30' E 008°36'0 0.0 220 / 171006.3 5.7 9.7
2019-Dec-06 03:00N 53°30' E 008°36'0 0.0 220 / 171006.5 5.5 9.4
2019-Dec-06 02:00N 53°30' E 008°36'142.7 210 / 171006.9 5.2 9.2
2019-Dec-06 01:59N 53°30' E 008°35'0 0.0
2019-Dec-06 01:29N 53°30' E 008°35'1 1.3
2019-Dec-06 01:00N 53°30' E 008°36'0 0.0 210 / 161007.4 4.7 9.0
2019-Dec-06 00:00N 53°30' E 008°36'0 0.0 210 / 161008.1 3.9 8.9
2019-Dec-05 23:00N 53°30' E 008°36'1 1.2 210 / 171009.3 3.7 8.8
2019-Dec-05 22:29N 53°30' E 008°35'1 1.3
2019-Dec-05 22:00N 53°30' E 008°36'0 0.0 210 / 201010.4 3.4 8.6
2019-Dec-05 21:00N 53°30' E 008°36'0 0.0 200 / 171011.3 2.9 8.6
2019-Dec-05 20:00N 53°30' E 008°36'1 1.2 200 / 171012.3 2.4 8.7
2019-Dec-05 19:29N 53°30' E 008°35'1 1.3
2019-Dec-05 19:00N 53°30' E 008°36'1 1.2 200 / 161013.2 2.4 8.7
2019-Dec-05 18:29N 53°30' E 008°35'1 1.3
2019-Dec-05 18:00N 53°30' E 008°36'1 1.2 200 / 151013.8 2.4 8.8
2019-Dec-05 17:29N 53°30' E 008°35'1 1.3
2019-Dec-05 17:00N 53°30' E 008°36'1 1.2 200 / 141014.5 2.2 9.0
2019-Dec-05 16:29N 53°30' E 008°35'1 1.3
2019-Dec-05 16:00N 53°30' E 008°36'1 1.2 200 / 131014.7 2.0 9.3
2019-Dec-05 15:29N 53°30' E 008°35'1 1.3
2019-Dec-05 15:00N 53°30' E 008°36'0 0.0 210 / 111015.8 2.2 9.8
2019-Dec-05 14:00N 53°30' E 008°36'1 1.2 230 / 151016.0 3.7 10.6
2019-Dec-05 13:29N 53°30' E 008°35'1 1.3
2019-Dec-05 13:00N 53°30' E 008°36'1 9.4 200 / 101016.5 4.4 11.3
2019-Dec-05 12:56N 53°30' E 008°35'1 0.7
2019-Dec-05 12:00N 53°30' E 008°36'0 0.0 200 / 111016.7 3.5 11.2
2019-Dec-05 11:00N 53°30' E 008°36'0 0.0 210 / 81017.3 2.7 10.4
2019-Dec-05 10:00N 53°30' E 008°36'0 0.0 200 / 61017.6 2.2 8.2
2019-Dec-05 09:00N 53°30' E 008°36'139.1 190 / 81017.2 0.7 8.1
2019-Dec-05 08:59N 53°30' E 008°35'1 0.6
2019-Dec-05 08:00N 53°30' E 008°36'0 0.0 190 / 71017.6 0.2 8.3
2019-Dec-05 07:00N 53°30' E 008°36'0 0.0 200 / 71018.2 0.4 8.7
2019-Dec-05 06:00N 53°30' E 008°36'138.3 220 / 41018.3 0.4 9.0
2019-Dec-05 05:59N 53°30' E 008°35'0 0.0
2019-Dec-05 05:29N 53°30' E 008°35'1 1.3
2019-Dec-05 05:00N 53°30' E 008°36'138.9 210 / 41018.1 0.5 9.2
2019-Dec-05 04:59N 53°30' E 008°35'1 0.6
2019-Dec-05 04:00N 53°30' E 008°36'0 0.0 210 / 61018.2 1.0 9.4
2019-Dec-05 03:00N 53°30' E 008°36'0 0.0 190 / 71018.0 1.4 9.5
2019-Dec-05 02:00N 53°30' E 008°36'136.2 200 / 81018.4 1.4 9.7
2019-Dec-05 01:58N 53°30' E 008°35'1 0.6
2019-Dec-05 01:00N 53°30' E 008°36'135.4 200 / 61018.7 1.5 9.9
2019-Dec-05 00:58N 53°30' E 008°35'1 0.6
2019-Dec-05 00:00N 53°30' E 008°36'0 0.0 190 / 61019.0 2.2 10.0
2019-Dec-04 23:00N 53°30' E 008°36'0 0.0 200 / 71019.3 2.2 9.9
2019-Dec-04 22:00N 53°30' E 008°36'0 0.0 210 / 71019.7 2.4 10.1
2019-Dec-04 21:00N 53°30' E 008°36'0 0.0 200 / 71019.9 3.0 10.1
2019-Dec-04 20:00N 53°30' E 008°36'0 0.0 200 / 81020.2 3.5 10.3
2019-Dec-04 19:00N 53°30' E 008°36'138.7 200 / 71020.1 3.9 10.9
2019-Dec-04 18:59N 53°30' E 008°35'1 0.6
2019-Dec-04 18:00N 53°30' E 008°36'0 0.0 200 / 61020.0 4.0 11.1
2019-Dec-04 17:00N 53°30' E 008°36'136.1 200 / 71020.1 5.0 11.3
2019-Dec-04 16:58N 53°30' E 008°35'1 0.6
2019-Dec-04 16:00N 53°30' E 008°36'0 0.0 200 / 61020.1 5.7 11.6
2019-Dec-04 15:00N 53°30' E 008°36'0 0.0 210 / 81020.6 6.2 11.5
2019-Dec-04 14:00N 53°30' E 008°36'0 0.0 210 / 81020.4 6.4 11.3
2019-Dec-04 13:00N 53°30' E 008°36'0 0.0 220 / 91020.5 6.2 11.1
2019-Dec-04 12:00N 53°30' E 008°36'134.0 220 / 91020.9 5.4 10.5
2019-Dec-04 11:58N 53°30' E 008°35'1 0.6
2019-Dec-04 11:00N 53°30' E 008°36'0 0.0 220 / 101021.3 4.7 10.4
2019-Dec-04 10:00N 53°30' E 008°36'1 1.2 220 / 71021.4 5.0 10.6
2019-Dec-04 09:28N 53°30' E 008°35'1 1.3
2019-Dec-04 09:00N 53°30' E 008°36'1 1.2 240 / 91021.5 4.7 10.2
2019-Dec-04 08:28N 53°30' E 008°35'1 1.3
2019-Dec-04 08:00N 53°30' E 008°36'0 0.0 230 / 91021.4 4.5 10.3
2019-Dec-04 07:00N 53°30' E 008°36'1 1.2 220 / 91021.2 4.2 10.2
2019-Dec-04 06:28N 53°30' E 008°35'1 1.3
2019-Dec-04 06:00N 53°30' E 008°36'1 1.2 220 / 91021.2 4.2 10.1
2019-Dec-04 05:28N 53°30' E 008°35'1 1.3
2019-Dec-04 05:00N 53°30' E 008°36'134.8 230 / 91021.1 4.2 10.2
2019-Dec-04 04:58N 53°30' E 008°35'1 0.6
2019-Dec-04 04:00N 53°30' E 008°36'1 9.1 230 / 91021.4 4.2 10.2
2019-Dec-04 03:55N 53°30' E 008°35'0 0.0
2019-Dec-04 03:28N 53°30' E 008°35'1 1.3
2019-Dec-04 03:00N 53°30' E 008°36'1 1.2 230 / 101021.4 4.2 10.0
2019-Dec-04 02:28N 53°30' E 008°35'1 1.3
2019-Dec-04 02:00N 53°30' E 008°36'133.9 230 / 111022.0 4.4 10.1
2019-Dec-04 01:58N 53°30' E 008°35'1 0.6
2019-Dec-04 01:00N 53°30' E 008°36'1 1.2 230 / 111022.2 4.4 10.2
2019-Dec-04 00:28N 53°30' E 008°35'1 1.3
2019-Dec-04 00:00N 53°30' E 008°36'1 1.2 230 / 121022.5 5.2 10.4
2019-Dec-03 23:28N 53°30' E 008°35'1 1.3
2019-Dec-03 23:00N 53°30' E 008°36'0 0.0 230 / 111022.9 5.7 10.7
2019-Dec-03 22:00N 53°30' E 008°36'1 1.2 230 / 101022.7 6.2 11.0
2019-Dec-03 21:28N 53°30' E 008°35'1 1.3
2019-Dec-03 21:00N 53°30' E 008°36'131.1 240 / 121022.6 6.5 11.0
2019-Dec-03 20:58N 53°30' E 008°35'0 0.0
2019-Dec-03 20:28N 53°30' E 008°35'1 1.3
2019-Dec-03 20:00N 53°30' E 008°36'132.4 230 / 111022.7 6.5 11.0
2019-Dec-03 19:58N 53°30' E 008°35'1 0.6
2019-Dec-03 19:00N 53°30' E 008°36'0 0.0 240 / 121022.9 6.5 10.9
2019-Dec-03 18:00N 53°30' E 008°36'0 0.0 230 / 111023.5 6.7 11.0
2019-Dec-03 17:00N 53°30' E 008°36'132.1 230 / 101023.4 6.7 11.3
2019-Dec-03 16:58N 53°30' E 008°35'1 0.6
2019-Dec-03 16:00N 53°30' E 008°36'0 0.0 230 / 101023.6 6.5 11.8
2019-Dec-03 15:00N 53°30' E 008°36'134.3 230 / 101023.8 7.2 12.2
2019-Dec-03 14:58N 53°30' E 008°35'1 0.6
2019-Dec-03 14:00N 53°30' E 008°36'1 1.2 250 / 111024.0 7.4 12.6
2019-Dec-03 13:28N 53°30' E 008°35'1 1.3
2019-Dec-03 13:00N 53°30' E 008°36'0 0.0 250 / 121024.3 7.5 12.9
2019-Dec-03 12:00N 53°30' E 008°36'1 1.2 250 / 161024.9 7.4 13.5
2019-Dec-03 11:28N 53°30' E 008°35'1 1.3
2019-Dec-03 11:00N 53°30' E 008°36'0 0.0 250 / 151024.9 7.4 13.4
2019-Dec-03 10:00N 53°30' E 008°36'1 1.2 230 / 91025.3 6.9 11.6
2019-Dec-03 09:28N 53°30' E 008°35'1 1.3
2019-Dec-03 09:00N 53°30' E 008°36'133.1 220 / 91025.4 5.2 11.5
2019-Dec-03 08:58N 53°30' E 008°35'0 0.0
2019-Dec-03 08:28N 53°30' E 008°35'1 1.3
2019-Dec-03 08:00N 53°30' E 008°36'1 1.2 250 / 61025.6 5.2 11.4
2019-Dec-03 07:28N 53°30' E 008°35'1 1.3
2019-Dec-03 07:00N 53°30' E 008°36'1 1.2 240 / 81025.4 5.0 11.4
2019-Dec-03 06:28N 53°30' E 008°35'1 1.3
2019-Dec-03 06:00N 53°30' E 008°36'1 1.2 230 / 71025.3 5.2 11.4
2019-Dec-03 05:28N 53°30' E 008°35'1 1.3
2019-Dec-03 05:00N 53°30' E 008°36'1 1.2 230 / 51025.3 5.0 11.5
2019-Dec-03 04:28N 53°30' E 008°35'1 1.3
2019-Dec-03 04:00N 53°30' E 008°36'132.0 220 / 31025.4 5.2 11.4
2019-Dec-03 03:58N 53°30' E 008°35'0 0.0
2019-Dec-03 03:28N 53°30' E 008°35'1 1.3
2019-Dec-03 03:00N 53°30' E 008°36'0 0.0 210 / 51025.1 4.7 11.2
2019-Dec-03 02:00N 53°30' E 008°36'0 0.0 250 / 61025.2 4.9 11.3
2019-Dec-03 01:00N 53°30' E 008°36'1 1.2 230 / 71025.1 4.7 11.2
2019-Dec-03 00:28N 53°30' E 008°35'1 1.3
2019-Dec-03 00:00N 53°30' E 008°36'0 0.0 220 / 51025.1 4.2 11.4
2019-Dec-02 23:00N 53°30' E 008°36'131.2 240 / 51024.9 4.2 11.7
2019-Dec-02 22:58N 53°30' E 008°35'0 0.0
2019-Dec-02 22:28N 53°30' E 008°35'1 1.3
2019-Dec-02 22:00N 53°30' E 008°36'1 1.2 240 / 31024.7 4.5 11.9
2019-Dec-02 21:28N 53°30' E 008°35'1 1.3
2019-Dec-02 21:00N 53°30' E 008°36'0 0.0 250 / 51024.5 4.7 11.8
2019-Dec-02 20:00N 53°30' E 008°36'1 1.2 250 / 51024.2 4.4 11.8
2019-Dec-02 19:28N 53°30' E 008°35'1 1.3
2019-Dec-02 19:00N 53°30' E 008°36'129.5 230 / 51023.9 4.7 11.9
2019-Dec-02 18:58N 53°30' E 008°35'0 0.0
2019-Dec-02 18:28N 53°30' E 008°35'1 1.3
2019-Dec-02 18:00N 53°30' E 008°36'1 1.2 300 / 21023.4 5.0 12.2
2019-Dec-02 17:28N 53°30' E 008°35'1 1.3
2019-Dec-02 17:00N 53°30' E 008°36'129.4 300 / 31022.9 6.0 12.4
2019-Dec-02 16:58N 53°30' E 008°35'1 0.6
2019-Dec-02 16:00N 53°30' E 008°36'130.1 320 / 81022.6 6.5 12.5
2019-Dec-02 15:58N 53°30' E 008°35'1 0.6
2019-Dec-02 15:00N 53°30' E 008°36'0 0.0 320 / 111022.3 6.4 12.8
2019-Dec-02 14:00N 53°30' E 008°36'0 0.0 320 / 101021.8 6.7 13.3
2019-Dec-02 13:00N 53°30' E 008°36'130.0 320 / 151021.4 7.4 13.6
2019-Dec-02 12:58N 53°30' E 008°35'1 0.6
2019-Dec-02 12:00N 53°30' E 008°36'1 1.2 330 / 121021.6 6.7 13.1
2019-Dec-02 11:28N 53°30' E 008°35'1 1.3
2019-Dec-02 11:00N 53°30' E 008°36'0 0.0 320 / 71021.2 6.4 11.8
2019-Dec-02 10:00N 53°30' E 008°36'0 0.0 260 / 71020.9 5.4 10.8
2019-Dec-02 09:00N 53°30' E 008°36'1 1.2 260 / 61020.5 4.5 10.4
2019-Dec-02 08:28N 53°30' E 008°35'1 1.3
2019-Dec-02 08:00N 53°30' E 008°36'1 1.2 250 / 71020.1 3.9 10.0
2019-Dec-02 07:28N 53°30' E 008°35'1 1.3
2019-Dec-02 07:00N 53°30' E 008°36'129.7 230 / 81019.7 2.9 9.7
2019-Dec-02 06:58N 53°30' E 008°35'1 0.6
2019-Dec-02 06:00N 53°30' E 008°36'128.0 190 / 41019.5 2.5 9.9
2019-Dec-02 05:58N 53°30' E 008°35'1 0.6
2019-Dec-02 05:00N 53°30' E 008°36'1 1.2 250 / 61019.6 3.5 10.1
2019-Dec-02 04:28N 53°30' E 008°35'1 1.3
2019-Dec-02 04:00N 53°30' E 008°36'128.5 250 / 31019.6 3.4 10.2
2019-Dec-02 03:58N 53°30' E 008°35'0 0.0
2019-Dec-02 03:28N 53°30' E 008°35'1 1.3
2019-Dec-02 03:00N 53°30' E 008°36'0 0.0 250 / 51019.4 3.0 9.9
2019-Dec-02 02:00N 53°30' E 008°36'1 1.2 270 / 31019.8 3.7 9.8
2019-Dec-02 01:28N 53°30' E 008°35'1 1.3
2019-Dec-02 01:00N 53°30' E 008°36'0 0.0 240 / 71019.8 2.4 9.7
2019-Dec-02 00:00N 53°30' E 008°36'1 1.2 250 / 71019.8 2.4 9.8
2019-Dec-01 23:28N 53°30' E 008°35'1 1.3
2019-Dec-01 23:00N 53°30' E 008°36'0 0.0 230 / 41020.2 2.7 9.8
2019-Dec-01 22:00N 53°30' E 008°36'0 0.0 240 / 51020.3 2.7 9.7
2019-Dec-01 21:00N 53°30' E 008°36'0 0.0 220 / 41020.4 2.7 9.8
2019-Dec-01 20:00N 53°30' E 008°36'127.1 220 / 51020.4 3.0 10.1
2019-Dec-01 19:58N 53°30' E 008°35'1 0.6
2019-Dec-01 19:00N 53°30' E 008°36'1 1.2 220 / 41020.5 3.2 10.2
2019-Dec-01 18:28N 53°30' E 008°35'1 1.3
2019-Dec-01 18:00N 53°30' E 008°36'0 0.0 230 / 31020.4 3.2 10.5
2019-Dec-01 17:00N 53°30' E 008°36'1 1.2 220 / 31020.4 3.0 10.5
2019-Dec-01 16:28N 53°30' E 008°35'1 1.3
2019-Dec-01 16:00N 53°30' E 008°36'127.3 170 / 41020.7 3.2 10.8
2019-Dec-01 15:58N 53°30' E 008°35'1 0.6
2019-Dec-01 15:00N 53°30' E 008°36'0 0.0 260 / 21020.8 3.9 10.9
2019-Dec-01 14:00N 53°30' E 008°36'126.8 230 / 31021.0 3.7 10.7
2019-Dec-01 13:58N 53°30' E 008°35'1 0.6
2019-Dec-01 13:00N 53°30' E 008°36'126.7 200 / 41021.0 3.7 10.4
2019-Dec-01 12:58N 53°30' E 008°35'1 0.6
2019-Dec-01 12:00N 53°30' E 008°36'126.5 210 / 41021.5 2.9 10.4
2019-Dec-01 11:58N 53°30' E 008°35'0 0.0
2019-Dec-01 11:28N 53°30' E 008°35'1 1.3
2019-Dec-01 11:00N 53°30' E 008°36'0 0.0 210 / 31021.5 2.5 10.1
2019-Dec-01 10:00N 53°30' E 008°36'0 0.0 130 / 11021.7 1.9 9.8
2019-Dec-01 09:00N 53°30' E 008°36'1 1.2 200 / 21021.8 1.2 9.6
2019-Dec-01 08:28N 53°30' E 008°35'1 1.3
2019-Dec-01 08:00N 53°30' E 008°36'0 0.0 180 / 41021.5 1.2 9.7
2019-Dec-01 07:00N 53°30' E 008°36'0 0.0 190 / 31021.2 1.7 9.8
2019-Dec-01 06:00N 53°30' E 008°36'1 1.2 190 / 41021.6 1.5 10.0
2019-Dec-01 05:28N 53°30' E 008°35'1 1.3
2019-Dec-01 05:00N 53°30' E 008°36'125.8 210 / 41021.5 1.7 10.2
2019-Dec-01 04:58N 53°30' E 008°35'1 0.6
2019-Dec-01 04:00N 53°30' E 008°36'126.6 170 / 41021.6 1.9 10.5
2019-Dec-01 03:58N 53°30' E 008°35'0 0.0
2019-Dec-01 03:28N 53°30' E 008°35'1 1.3
2019-Dec-01 03:00N 53°30' E 008°36'1 1.2 180 / 41021.9 2.4 10.7
2019-Dec-01 02:28N 53°30' E 008°35'1 1.3
2019-Dec-01 02:00N 53°30' E 008°36'0 0.0 190 / 21022.0 2.9 10.8
2019-Dec-01 01:00N 53°30' E 008°36'0 0.0 210 / 31022.3 3.5 10.8
2019-Dec-01 00:00N 53°30' E 008°36'126.9 230 / 11022.6 3.2 10.7
2019-Nov-30 23:58N 53°30' E 008°35'1 0.6
2019-Nov-30 23:00N 53°30' E 008°36'124.7 210 / 41022.5 3.2 10.6
2019-Nov-30 22:58N 53°30' E 008°35'1 0.6
2019-Nov-30 22:00N 53°30' E 008°36'1 1.2 210 / 41022.6 3.5 10.7
2019-Nov-30 21:28N 53°30' E 008°35'1 1.3
2019-Nov-30 21:00N 53°30' E 008°36'1 1.2 240 / 41022.6 3.2 10.8
2019-Nov-30 20:28N 53°30' E 008°35'1 1.3
2019-Nov-30 20:00N 53°30' E 008°36'0 0.0 230 / 31022.6 3.4 10.9
2019-Nov-30 19:00N 53°30' E 008°36'126.1 220 / 31022.3 3.9 10.9
2019-Nov-30 18:58N 53°30' E 008°35'0 0.0
2019-Nov-30 18:28N 53°30' E 008°35'1 1.3
2019-Nov-30 18:00N 53°30' E 008°36'0 0.0 260 / 81022.1 4.5 11.0
2019-Nov-30 17:00N 53°30' E 008°36'0 0.0 260 / 81022.0 4.0 11.0
2019-Nov-30 16:00N 53°30' E 008°36'0 0.0 230 / 61022.1 4.4 11.1
2019-Nov-30 15:00N 53°30' E 008°36'0 0.0 250 / 81022.0 5.4 11.6
2019-Nov-30 14:00N 53°30' E 008°36'1 1.2 260 / 101021.8 6.2 12.1
2019-Nov-30 13:28N 53°30' E 008°35'1 1.3
2019-Nov-30 13:00N 53°30' E 008°36'1 1.2 270 / 61021.6 6.2 12.2
2019-Nov-30 12:28N 53°30' E 008°35'1 1.3
2019-Nov-30 12:00N 53°30' E 008°36'0 0.0 270 / 51021.4 6.4 11.8
2019-Nov-30 11:00N 53°30' E 008°36'0 0.0 270 / 31021.3 5.4 10.9
2019-Nov-30 10:00N 53°30' E 008°36'0 0.0 210 / 51021.2 4.4 10.9
2019-Nov-30 09:00N 53°30' E 008°36'0 0.0 240 / 61020.8 3.9 11.6
2019-Nov-30 08:00N 53°30' E 008°36'0 0.0 270 / 31020.3 3.4 11.4
2019-Nov-30 07:00N 53°30' E 008°36'0 0.0 260 / 51020.0 3.2 11.5
2019-Nov-30 06:00N 53°30' E 008°36'1 1.2 260 / 71019.4 3.7 11.8
2019-Nov-30 05:28N 53°30' E 008°35'1 1.3
2019-Nov-30 05:00N 53°30' E 008°36'124.2 250 / 41019.1 3.4 11.6
2019-Nov-30 04:58N 53°30' E 008°35'1 0.6
2019-Nov-30 04:00N 53°30' E 008°36'1 1.2 230 / 51018.6 3.4 11.6
2019-Nov-30 03:28N 53°30' E 008°35'1 1.3
2019-Nov-30 03:00N 53°30' E 008°36'1 1.2 260 / 81018.2 3.9 11.7
2019-Nov-30 02:28N 53°30' E 008°35'1 1.3
2019-Nov-30 02:00N 53°30' E 008°36'0 0.0 260 / 71017.7 3.4 11.6
2019-Nov-30 01:00N 53°30' E 008°36'125.5 250 / 61017.1 3.0 11.6
2019-Nov-30 00:58N 53°30' E 008°35'1 0.6
2019-Nov-30 00:00N 53°30' E 008°36'0 0.0 240 / 101016.6 3.7 11.8
2019-Nov-29 23:00N 53°30' E 008°36'123.1 290 / 81015.8 4.7 12.0
2019-Nov-29 22:58N 53°30' E 008°35'1 0.6
2019-Nov-29 22:00N 53°30' E 008°36'1 1.2 360 / 41015.3 4.9 11.9
2019-Nov-29 21:28N 53°30' E 008°35'1 1.3
2019-Nov-29 21:00N 53°30' E 008°36'123.9 310 / 71014.6 4.4 12.0
2019-Nov-29 20:58N 53°30' E 008°35'0 0.0
2019-Nov-29 20:28N 53°30' E 008°35'1 1.3
2019-Nov-29 20:00N 53°30' E 008°36'1 1.2 240 / 31013.7 4.2 12.2
2019-Nov-29 19:28N 53°30' E 008°35'1 1.3
2019-Nov-29 19:00N 53°30' E 008°36'0 0.0 290 / 21012.7 4.7 12.2
2019-Nov-29 18:00N 53°30' E 008°36'123.0 320 / 11011.9 5.4 12.0
2019-Nov-29 17:58N 53°30' E 008°35'0 0.0
2019-Nov-29 17:28N 53°30' E 008°35'1 1.3
2019-Nov-29 17:00N 53°30' E 008°36'1 1.2 240 / 41011.2 4.4 11.7
2019-Nov-29 16:28N 53°30' E 008°35'1 1.3
2019-Nov-29 16:00N 53°30' E 008°36'123.4 220 / 21010.3 4.7 10.8
2019-Nov-29 15:58N 53°30' E 008°35'0 0.0
2019-Nov-29 15:28N 53°30' E 008°35'1 1.3
2019-Nov-29 15:00N 53°30' E 008°36'0 0.0 350 / 51009.7 6.2 9.6
2019-Nov-29 14:00N 53°30' E 008°36'123.5 330 / 61009.0 6.4 8.5
2019-Nov-29 13:58N 53°30' E 008°35'1 0.6
2019-Nov-29 13:00N 53°30' E 008°36'0 0.0 350 / 111008.3 6.4 8.5
2019-Nov-29 12:00N 53°30' E 008°36'125.8 340 / 111007.0 6.7 8.5
2019-Nov-29 11:58N 53°30' E 008°35'0 0.2
2019-Nov-29 11:28N 53°30' E 008°35'1 1.2
2019-Nov-29 11:00N 53°30' E 008°36'0 0.0 340 / 91006.0 6.2 8.7
2019-Nov-29 10:00N 53°30' E 008°36'1 1.1 340 / 101004.5 5.7 8.7
2019-Nov-29 09:28N 53°30' E 008°35'1 1.2
2019-Nov-29 09:00N 53°30' E 008°36'0 0.0 310 / 131002.8 5.5 8.8
2019-Nov-29 08:00N 53°30' E 008°36'1 1.1 300 / 171001.7 5.9 8.8
2019-Nov-29 07:28N 53°30' E 008°35'1 1.2
2019-Nov-29 07:00N 53°30' E 008°36'121.9 300 / 151000.3 6.2 8.8
2019-Nov-29 06:58N 53°30' E 008°35'0 0.0
2019-Nov-29 06:28N 53°30' E 008°35'1 1.2
2019-Nov-29 06:00N 53°30' E 008°36'0 0.0 290 / 19999.1 6.5 8.8
2019-Nov-29 05:00N 53°30' E 008°36'121.0 300 / 14998.4 5.7 8.8
2019-Nov-29 04:58N 53°30' E 008°35'0 0.0
2019-Nov-29 04:28N 53°30' E 008°35'1 1.2
2019-Nov-29 04:00N 53°30' E 008°36'1 1.1 270 / 17997.3 5.9 8.8
2019-Nov-29 03:28N 53°30' E 008°35'1 1.2
2019-Nov-29 03:00N 53°30' E 008°36'1 1.1 280 / 19996.8 6.2 8.8
2019-Nov-29 02:28N 53°30' E 008°35'1 1.2
2019-Nov-29 02:00N 53°30' E 008°36'122.0 290 / 19996.4 5.9 8.9
2019-Nov-29 01:58N 53°30' E 008°35'1 0.6
2019-Nov-29 01:00N 53°30' E 008°36'1 1.1 270 / 16995.6 6.4 8.9
2019-Nov-29 00:28N 53°30' E 008°35'1 1.2
2019-Nov-29 00:00N 53°30' E 008°36'0 0.0 280 / 14995.1 7.2 8.9
2019-Nov-28 23:00N 53°30' E 008°36'0 0.0 290 / 16994.3 7.4 8.9
2019-Nov-28 22:00N 53°30' E 008°36'1 1.1 290 / 17993.2 8.0 8.9
2019-Nov-28 21:28N 53°30' E 008°35'1 1.2
2019-Nov-28 21:00N 53°30' E 008°36'0 0.0 290 / 16992.3 7.9 8.9
2019-Nov-28 20:00N 53°30' E 008°36'121.1 270 / 14991.3 8.4 8.8
2019-Nov-28 19:58N 53°30' E 008°35'0 0.0
2019-Nov-28 19:28N 53°30' E 008°35'1 1.2
2019-Nov-28 19:00N 53°30' E 008°36'120.6 290 / 13990.2 8.2 8.8
2019-Nov-28 18:58N 53°30' E 008°35'1 0.6
2019-Nov-28 18:00N 53°30' E 008°36'121.5 270 / 15989.0 8.9 8.8
2019-Nov-28 17:58N 53°30' E 008°35'1 0.6
2019-Nov-28 17:00N 53°30' E 008°36'1 1.1 270 / 14988.2 9.4 8.8
2019-Nov-28 16:28N 53°30' E 008°35'1 1.2
2019-Nov-28 16:00N 53°30' E 008°36'121.9 280 / 15987.3 9.4 8.7
2019-Nov-28 15:58N 53°30' E 008°35'1 0.6
2019-Nov-28 15:00N 53°30' E 008°36'1 1.1 280 / 14986.1 9.9 8.7
2019-Nov-28 14:28N 53°30' E 008°35'1 1.3
2019-Nov-28 14:00N 53°30' E 008°36'120.4 260 / 12984.5 9.0 8.7
2019-Nov-28 13:58N 53°30' E 008°35'0 0.0
2019-Nov-28 13:28N 53°30' E 008°35'1 1.2
2019-Nov-28 13:00N 53°30' E 008°36'0 0.0 220 / 12984.1 8.9 8.7
2019-Nov-28 12:00N 53°30' E 008°36'0 0.0 210 / 13984.1 8.7 8.6
2019-Nov-28 11:00N 53°30' E 008°36'0 0.0 210 / 15984.2 8.9 8.7
2019-Nov-28 10:00N 53°30' E 008°36'0 0.0 200 / 15984.3 9.2 8.7
2019-Nov-28 09:00N 53°30' E 008°36'0 0.0 190 / 12984.2 9.4 8.7
2019-Nov-28 08:00N 53°30' E 008°36'1 1.1 200 / 12984.2 9.2 8.7
2019-Nov-28 07:28N 53°30' E 008°35'1 1.2
2019-Nov-28 07:00N 53°30' E 008°36'1 1.1 200 / 14984.1 9.7 8.6
2019-Nov-28 06:28N 53°30' E 008°35'1 1.2
2019-Nov-28 06:00N 53°30' E 008°36'0 0.0 200 / 12983.8 9.4 8.6
2019-Nov-28 05:00N 53°30' E 008°36'121.6 200 / 12983.8 9.5 8.6
2019-Nov-28 04:58N 53°30' E 008°35'0 0.0
2019-Nov-28 04:28N 53°30' E 008°35'1 1.3
2019-Nov-28 04:00N 53°30' E 008°36'0 0.0 210 / 14983.8 9.9 8.6
2019-Nov-28 03:00N 53°30' E 008°36'1 1.1 200 / 14983.5 9.9 8.6
2019-Nov-28 02:28N 53°30' E 008°35'1 1.2
2019-Nov-28 02:00N 53°30' E 008°36'1 1.1 190 / 19983.3 9.9 8.6
2019-Nov-28 01:28N 53°30' E 008°35'1 1.2
2019-Nov-28 01:00N 53°30' E 008°36'0 0.0 170 / 14983.6 10.2 8.6
2019-Nov-28 00:00N 53°30' E 008°36'120.4 170 / 13984.4 10.4 8.6
2019-Nov-27 23:58N 53°30' E 008°35'1 0.6
2019-Nov-27 23:00N 53°30' E 008°36'0 0.0 160 / 12985.4 9.9 8.6
2019-Nov-27 22:00N 53°30' E 008°36'1 1.1 150 / 10986.0 8.9 8.6
2019-Nov-27 21:28N 53°30' E 008°35'1 1.3
2019-Nov-27 21:00N 53°30' E 008°36'120.4 140 / 10986.7 8.9 8.6
2019-Nov-27 20:58N 53°30' E 008°35'0 0.0
2019-Nov-27 20:28N 53°30' E 008°35'1 1.3
2019-Nov-27 20:00N 53°30' E 008°36'120.6 140 / 10987.2 8.7 8.6
2019-Nov-27 19:58N 53°30' E 008°35'0 0.0
2019-Nov-27 19:28N 53°30' E 008°35'1 1.3
2019-Nov-27 19:00N 53°30' E 008°36'0 0.0 140 / 11987.8 8.7 8.7
2019-Nov-27 18:00N 53°30' E 008°36'1 1.1 140 / 11988.3 9.2 8.6
2019-Nov-27 17:28N 53°30' E 008°35'1 1.3
2019-Nov-27 17:00N 53°30' E 008°36'120.0 140 / 10988.7 8.9 8.6
2019-Nov-27 16:58N 53°30' E 008°35'0 0.0
2019-Nov-27 16:28N 53°30' E 008°35'1 1.3
2019-Nov-27 16:00N 53°30' E 008°36'1 1.1 140 / 11989.0 9.5 8.6
2019-Nov-27 15:28N 53°30' E 008°35'1 1.3
2019-Nov-27 15:00N 53°30' E 008°36'1 1.1 140 / 9989.5 9.5 8.5
2019-Nov-27 14:28N 53°30' E 008°35'1 1.3
2019-Nov-27 14:00N 53°30' E 008°36'119.6 140 / 11989.5 9.5 8.6
2019-Nov-27 13:58N 53°30' E 008°35'1 0.6
2019-Nov-27 13:00N 53°30' E 008°36'120.8 140 / 9989.5 9.4 8.6
2019-Nov-27 12:58N 53°30' E 008°35'1 0.6
2019-Nov-27 12:00N 53°30' E 008°36'1 1.1 170 / 9990.6 9.2 8.7
2019-Nov-27 11:28N 53°30' E 008°35'1 1.3
2019-Nov-27 11:00N 53°30' E 008°36'0 0.0 160 / 11990.6 10.2 8.7
2019-Nov-27 10:00N 53°30' E 008°36'120.1 140 / 12991.2 9.5 8.7
2019-Nov-27 09:58N 53°30' E 008°35'0 0.0
2019-Nov-27 09:28N 53°30' E 008°35'1 1.3
2019-Nov-27 09:00N 53°30' E 008°36'1 1.1 120 / 11991.4 9.4 8.7
2019-Nov-27 08:28N 53°30' E 008°35'1 1.3
2019-Nov-27 08:00N 53°30' E 008°36'0 0.0 120 / 12992.1 9.4 8.7
2019-Nov-27 07:00N 53°30' E 008°36'1 1.1 110 / 9992.5 9.5 8.7
2019-Nov-27 06:28N 53°30' E 008°35'1 1.3
2019-Nov-27 06:00N 53°30' E 008°36'0 0.0 130 / 8993.6 9.2 8.6
2019-Nov-27 05:00N 53°30' E 008°36'0 0.0 130 / 8994.2 9.4 8.6
2019-Nov-27 04:00N 53°30' E 008°36'1 1.1 140 / 8995.2 9.2 8.6
2019-Nov-27 03:28N 53°30' E 008°35'1 1.3
2019-Nov-27 03:00N 53°30' E 008°36'1 1.1 140 / 9995.8 9.2 8.5
2019-Nov-27 02:28N 53°30' E 008°35'1 1.3
2019-Nov-27 02:00N 53°30' E 008°36'0 0.0 140 / 9996.7 9.2 8.5
2019-Nov-27 01:00N 53°30' E 008°36'0 0.0 140 / 10997.2 9.2 8.5
2019-Nov-27 00:00N 53°30' E 008°36'0 0.0 140 / 10997.8 9.4 8.5
2019-Nov-26 23:00N 53°30' E 008°36'118.9 140 / 11998.6 9.2 8.5
2019-Nov-26 22:58N 53°30' E 008°35'0 0.0
2019-Nov-26 22:28N 53°30' E 008°35'1 1.3
2019-Nov-26 22:00N 53°30' E 008°36'1 1.1 140 / 10998.9 9.2 8.5
2019-Nov-26 21:28N 53°30' E 008°35'1 1.3
2019-Nov-26 21:00N 53°30' E 008°36'0 0.0 140 / 10999.9 9.4 8.5
2019-Nov-26 20:00N 53°30' E 008°36'119.4 140 / 101000.7 9.4 8.5
2019-Nov-26 19:58N 53°30' E 008°35'0 0.0
2019-Nov-26 19:28N 53°30' E 008°35'1 1.3
2019-Nov-26 19:00N 53°30' E 008°36'118.9 150 / 101000.9 9.0 8.5
2019-Nov-26 18:58N 53°30' E 008°35'1 0.6
2019-Nov-26 18:00N 53°30' E 008°36'0 0.0 140 / 101001.3 8.9 8.5
2019-Nov-26 17:00N 53°30' E 008°36'0 0.0 140 / 101001.7 8.4 8.5
2019-Nov-26 16:00N 53°30' E 008°36'0 0.0 150 / 111002.0 8.4 8.5
2019-Nov-26 15:00N 53°30' E 008°36'1 1.1 140 / 91002.4 8.2 8.5
2019-Nov-26 14:28N 53°30' E 008°35'1 1.3
2019-Nov-26 14:00N 53°30' E 008°36'0 0.0 140 / 91002.8 7.9 8.5
2019-Nov-26 13:00N 53°30' E 008°36'118.9 160 / 81003.2 7.9 8.5
2019-Nov-26 12:58N 53°30' E 008°35'1 0.6
2019-Nov-26 12:00N 53°30' E 008°36'0 0.0 170 / 61003.7 8.2 8.6
2019-Nov-26 11:00N 53°30' E 008°36'1 1.1 150 / 71004.0 7.4 8.6
2019-Nov-26 10:28N 53°30' E 008°35'1 1.3
2019-Nov-26 10:00N 53°30' E 008°36'0 0.0 150 / 91004.6 6.4 8.6
2019-Nov-26 09:00N 53°30' E 008°36'118.8 140 / 91005.1 5.7 8.6
2019-Nov-26 08:58N 53°30' E 008°35'1 0.6
2019-Nov-26 08:00N 53°30' E 008°36'1 1.1 150 / 91005.3 5.4 8.6
2019-Nov-26 07:28N 53°30' E 008°35'1 1.3
2019-Nov-26 07:00N 53°30' E 008°36'118.8 140 / 91005.6 5.2 8.6
2019-Nov-26 06:58N 53°30' E 008°35'0 0.0
2019-Nov-26 06:28N 53°30' E 008°35'1 1.3
2019-Nov-26 06:00N 53°30' E 008°36'1 1.1 130 / 71005.6 5.2 8.6
2019-Nov-26 05:28N 53°30' E 008°35'1 1.3
2019-Nov-26 05:00N 53°30' E 008°36'   140 / 91006.1 4.7 8.6

Dump ship's entire track history